createdAt,value
2017-12-25T00:01:45.614Z,-0.80
2017-12-25T00:04:16.056Z,-0.70
2017-12-25T00:06:46.561Z,-0.70
2017-12-25T00:09:16.976Z,-0.80
2017-12-25T00:11:47.560Z,-0.60
2017-12-25T00:14:17.677Z,-0.70
2017-12-25T00:16:48.018Z,-0.70
2017-12-25T00:19:18.039Z,-0.80
2017-12-25T00:21:48.176Z,-0.70
2017-12-25T00:24:19.524Z,-1.10
2017-12-25T00:26:49.671Z,-1.10
2017-12-25T00:29:19.752Z,-1.10
2017-12-25T00:31:51.242Z,-1.00
2017-12-25T00:34:21.330Z,-1.00
2017-12-25T00:36:52.142Z,-0.90
2017-12-25T00:39:23.052Z,-1.00
2017-12-25T00:41:53.215Z,-1.00
2017-12-25T00:44:24.198Z,-1.00
2017-12-25T00:46:54.343Z,-1.00
2017-12-25T00:49:24.540Z,-1.00
2017-12-25T00:51:54.706Z,-1.00
2017-12-25T00:54:25.539Z,-1.20
2017-12-25T00:56:56.569Z,-1.10
2017-12-25T00:59:27.639Z,-1.10
2017-12-25T01:01:58.843Z,-1.10
2017-12-25T01:04:29.129Z,-1.20
2017-12-25T01:06:59.894Z,-1.10
2017-12-25T01:09:30.267Z,-1.10
2017-12-25T01:12:00.722Z,-1.10
2017-12-25T01:14:30.795Z,-1.10
2017-12-25T01:17:00.883Z,-1.10
2017-12-25T01:19:31.430Z,-1.20
2017-12-25T01:22:02.126Z,-1.10
2017-12-25T01:24:33.034Z,-1.20
2017-12-25T01:27:03.549Z,-1.30
2017-12-25T01:29:33.647Z,-1.20
2017-12-25T01:32:03.949Z,-1.20
2017-12-25T01:34:34.849Z,-1.10
2017-12-25T01:37:05.139Z,-1.20
2017-12-25T01:39:35.478Z,-1.30
2017-12-25T01:42:06.420Z,-1.40
2017-12-25T01:44:36.514Z,-1.30
2017-12-25T01:47:08.199Z,-1.20
2017-12-25T01:49:38.819Z,-1.20
2017-12-25T01:52:09.395Z,-1.20
2017-12-25T01:54:40.487Z,-1.40
2017-12-25T01:57:12.024Z,-1.40
2017-12-25T01:59:44.370Z,-1.40
2017-12-25T02:02:14.803Z,-1.40
2017-12-25T02:04:46.879Z,-1.40
2017-12-25T02:07:27.820Z,-1.40
2017-12-25T02:09:58.145Z,-1.30
2017-12-25T02:12:28.466Z,-1.40
2017-12-25T02:14:58.988Z,-1.40
2017-12-25T02:17:31.537Z,-1.40
2017-12-25T02:20:02.494Z,-1.30
2017-12-25T02:22:33.055Z,-1.30
2017-12-25T02:25:04.006Z,-1.20
2017-12-25T02:27:34.505Z,-1.20
2017-12-25T02:30:04.671Z,-1.00
2017-12-25T02:32:34.754Z,-0.80
2017-12-25T02:35:05.171Z,-0.70
2017-12-25T02:37:35.446Z,-0.70
2017-12-25T02:40:05.858Z,-0.70
2017-12-25T02:42:36.522Z,-0.80
2017-12-25T02:45:06.665Z,-0.80
2017-12-25T02:47:36.840Z,-0.80
2017-12-25T02:50:09.123Z,-0.80
2017-12-25T02:52:39.465Z,-0.80
2017-12-25T02:55:10.542Z,-0.70
2017-12-25T02:57:41.170Z,-0.80
2017-12-25T03:00:11.267Z,-1.00
2017-12-25T03:02:41.365Z,-1.20
2017-12-25T03:05:11.795Z,-1.40
2017-12-25T03:07:42.083Z,-1.50
2017-12-25T03:10:12.223Z,-1.50
2017-12-25T03:12:43.586Z,-1.40
2017-12-25T03:15:13.605Z,-1.40
2017-12-25T03:17:44.441Z,-1.40
2017-12-25T03:20:15.136Z,-1.40
2017-12-25T03:24:11.142Z,-1.40
2017-12-25T03:26:42.464Z,-1.40
2017-12-25T03:29:12.955Z,-1.30
2017-12-25T03:31:47.793Z,-1.20
2017-12-25T03:35:42.457Z,-1.20
2017-12-25T03:38:14.637Z,-1.00
2017-12-25T03:40:46.279Z,-0.90
2017-12-25T03:43:16.841Z,-1.00
2017-12-25T03:45:47.736Z,-0.90
2017-12-25T03:48:18.356Z,-0.90
2017-12-25T03:50:49.054Z,-0.80
2017-12-25T03:53:20.431Z,-0.80
2017-12-25T03:55:50.816Z,-0.70
2017-12-25T03:58:21.150Z,-0.90
2017-12-25T04:00:52.325Z,-0.70
2017-12-25T04:03:23.092Z,-0.70
2017-12-25T04:05:54.427Z,-0.80
2017-12-25T04:08:25.424Z,-0.70
2017-12-25T04:10:56.101Z,-0.60
2017-12-25T04:13:27.482Z,-0.60
2017-12-25T04:15:59.057Z,-0.60
2017-12-25T04:18:30.656Z,-0.60
2017-12-25T04:21:01.411Z,-0.60
2017-12-25T04:23:32.464Z,-0.80
2017-12-25T04:26:02.712Z,-0.80
2017-12-25T04:28:34.237Z,-0.80
2017-12-25T04:31:04.552Z,-0.90
2017-12-25T04:33:34.797Z,-1.00
2017-12-25T04:36:05.950Z,-1.00
2017-12-25T04:38:36.566Z,-1.00
2017-12-25T04:41:07.382Z,-1.00
2017-12-25T04:43:39.522Z,-1.10
2017-12-25T04:46:10.442Z,-1.10
2017-12-25T04:48:41.434Z,-1.30
2017-12-25T04:51:13.345Z,-1.30
2017-12-25T04:53:44.139Z,-1.40
2017-12-25T04:56:15.486Z,-1.30
2017-12-25T04:58:46.582Z,-1.30
2017-12-25T05:01:17.211Z,-1.50
2017-12-25T05:03:47.830Z,-1.40
2017-12-25T05:06:18.459Z,-1.40
2017-12-25T05:08:50.281Z,-1.40
2017-12-25T05:11:21.390Z,-1.20
2017-12-25T05:13:52.012Z,-1.20
2017-12-25T05:16:22.624Z,-1.20
2017-12-25T05:18:53.010Z,-1.20
2017-12-25T05:21:23.362Z,-1.10
2017-12-25T05:23:54.412Z,-1.20
2017-12-25T05:26:25.401Z,-1.10
2017-12-25T05:28:56.025Z,-1.10
2017-12-25T05:31:28.173Z,-1.10
2017-12-25T05:33:58.916Z,-1.10
2017-12-25T05:36:29.503Z,-0.90
2017-12-25T05:39:00.950Z,-0.90
2017-12-25T05:41:31.730Z,-0.90
2017-12-25T05:44:02.421Z,-0.90
2017-12-25T05:46:33.349Z,-0.90
2017-12-25T05:49:04.269Z,-0.90
2017-12-25T05:51:34.548Z,-1.20
2017-12-25T05:54:04.784Z,-1.20
2017-12-25T05:56:35.548Z,-1.20
2017-12-25T05:59:06.469Z,-1.40
2017-12-25T06:01:37.876Z,-1.40
2017-12-25T06:04:08.263Z,-1.40
2017-12-25T06:06:39.346Z,-1.30
2017-12-25T06:09:10.474Z,-1.30
2017-12-25T06:11:44.587Z,-1.30
2017-12-25T06:14:15.719Z,-1.30
2017-12-25T06:16:46.424Z,-1.30
2017-12-25T06:19:16.708Z,-1.30
2017-12-25T06:21:47.305Z,-1.30
2017-12-25T06:24:18.628Z,-1.50
2017-12-25T06:26:49.983Z,-1.50
2017-12-25T06:29:20.729Z,-1.60
2017-12-25T06:31:52.287Z,-1.60
2017-12-25T06:34:23.939Z,-1.70
2017-12-25T06:36:56.074Z,-1.80
2017-12-25T06:39:27.580Z,-1.70
2017-12-25T06:41:58.328Z,-1.70
2017-12-25T06:44:29.968Z,-1.60
2017-12-25T06:47:00.779Z,-1.60
2017-12-25T06:49:31.192Z,-1.60
2017-12-25T06:52:02.395Z,-1.60
2017-12-25T06:54:37.829Z,-1.60
2017-12-25T06:57:10.301Z,-1.50
2017-12-25T06:59:46.845Z,-1.50
2017-12-25T07:03:22.502Z,-1.60
2017-12-25T07:05:54.519Z,-1.60
2017-12-25T07:08:25.695Z,-1.70
2017-12-25T07:11:08.357Z,-1.60
2017-12-25T07:13:39.949Z,-1.60
2017-12-25T07:16:11.078Z,-1.50
2017-12-25T07:18:41.829Z,-1.50
2017-12-25T07:21:13.035Z,-1.60
2017-12-25T07:23:43.645Z,-1.60
2017-12-25T07:26:17.671Z,-1.50
2017-12-25T07:28:49.143Z,-1.50
2017-12-25T07:31:19.740Z,-1.50
2017-12-25T07:33:51.602Z,-1.50
2017-12-25T07:36:22.349Z,-1.60
2017-12-25T07:38:52.862Z,-1.50
2017-12-25T07:41:23.995Z,-1.60
2017-12-25T07:43:54.884Z,-1.60
2017-12-25T07:46:50.298Z,-1.60
2017-12-25T07:49:21.825Z,-1.50
2017-12-25T07:51:52.849Z,-1.50
2017-12-25T07:54:23.508Z,-1.50
2017-12-25T07:56:55.737Z,-1.40
2017-12-25T07:59:39.361Z,-1.50
2017-12-25T08:02:11.256Z,-1.40
2017-12-25T08:04:42.847Z,-1.40
2017-12-25T08:07:14.306Z,-1.40
2017-12-25T08:09:45.836Z,-1.40
2017-12-25T08:12:17.081Z,-1.40
2017-12-25T08:28:39.809Z,-1.40
2017-12-25T08:31:12.537Z,-1.30
2017-12-25T08:33:43.170Z,-1.20
2017-12-25T08:36:18.952Z,-1.30
2017-12-25T08:38:52.132Z,-1.20
2017-12-25T08:41:22.581Z,-1.10
2017-12-25T08:45:50.000Z,-1.20
2017-12-25T08:48:20.610Z,-1.10
2017-12-25T08:50:51.413Z,-1.00
2017-12-25T08:53:22.535Z,-1.00
2017-12-25T08:55:54.012Z,-1.00
2017-12-25T08:58:25.271Z,-1.00
2017-12-25T09:00:56.721Z,-0.90
2017-12-25T09:03:27.216Z,-0.90
2017-12-25T09:05:58.582Z,-0.70
2017-12-25T09:08:29.322Z,-0.60
2017-12-25T09:10:59.819Z,-0.50
2017-12-25T09:13:30.922Z,-0.60
2017-12-25T09:16:01.678Z,-0.50
2017-12-25T09:18:32.134Z,-0.40
2017-12-25T09:21:03.233Z,-0.10
2017-12-25T09:36:29.927Z,0.30
2017-12-25T09:39:02.284Z,0.40
2017-12-25T09:41:47.202Z,0.40
2017-12-25T09:44:18.753Z,0.70
2017-12-25T09:46:50.042Z,0.70
2017-12-25T09:49:21.207Z,0.70
2017-12-25T09:51:52.695Z,0.90
2017-12-25T09:54:23.670Z,1.10
2017-12-25T09:56:54.574Z,1.30
2017-12-25T09:59:25.769Z,1.40
2017-12-25T10:01:57.085Z,1.80
2017-12-25T10:04:30.963Z,1.80
2017-12-25T10:09:52.797Z,2.20
2017-12-25T10:12:23.408Z,2.40
2017-12-25T10:14:54.097Z,3.00
2017-12-25T10:17:25.782Z,3.50
2017-12-25T10:19:57.172Z,4.10
2017-12-25T10:22:30.707Z,4.40
2017-12-25T10:25:01.360Z,4.00
2017-12-25T10:27:40.233Z,3.50
2017-12-25T10:30:12.396Z,3.50
2017-12-25T10:32:44.432Z,3.50
2017-12-25T10:35:14.729Z,3.90
2017-12-25T10:37:47.012Z,4.60
2017-12-25T10:40:18.972Z,4.80
2017-12-25T10:42:49.628Z,4.80
2017-12-25T10:45:20.672Z,5.00
2017-12-25T10:47:52.975Z,5.50
2017-12-25T10:50:29.802Z,5.50
2017-12-25T10:53:01.712Z,5.50
2017-12-25T10:55:33.091Z,4.80
2017-12-25T10:58:03.586Z,4.00
2017-12-25T11:00:39.013Z,3.20
2017-12-25T11:03:10.749Z,2.90
2017-12-25T11:05:41.826Z,2.60
2017-12-25T11:08:13.294Z,2.90
2017-12-25T11:10:43.619Z,2.90
2017-12-25T11:13:14.527Z,3.10
2017-12-25T11:15:46.223Z,3.00
2017-12-25T11:18:17.233Z,3.00
2017-12-25T11:21:24.019Z,3.00
2017-12-25T11:23:54.843Z,3.00
2017-12-25T11:26:26.613Z,2.80
2017-12-25T11:28:58.949Z,2.90
2017-12-25T11:31:29.755Z,2.90
2017-12-25T11:34:16.657Z,2.40
2017-12-25T11:36:48.420Z,2.30
2017-12-25T11:39:20.067Z,2.30
2017-12-25T11:41:53.821Z,2.30
2017-12-25T11:44:27.266Z,2.30
2017-12-25T11:46:58.711Z,2.30
2017-12-25T11:49:41.818Z,2.90
2017-12-25T11:52:19.154Z,2.90
2017-12-25T11:54:50.304Z,2.50
2017-12-25T11:57:20.583Z,2.80
2017-12-25T11:59:51.263Z,3.00
2017-12-25T12:02:21.856Z,2.90
2017-12-25T12:04:53.158Z,3.00
2017-12-25T12:07:23.727Z,2.90
2017-12-25T12:09:56.368Z,2.60
2017-12-25T12:12:27.959Z,2.70
2017-12-25T12:15:01.148Z,2.70
2017-12-25T12:17:35.040Z,3.10
2017-12-25T12:20:06.212Z,3.00
2017-12-25T12:22:38.707Z,2.80
2017-12-25T12:25:09.432Z,2.50
2017-12-25T12:27:39.657Z,2.80
2017-12-25T12:30:12.033Z,2.70
2017-12-25T12:32:47.628Z,2.70
2017-12-25T12:35:19.664Z,2.60
2017-12-25T12:37:53.959Z,2.50
2017-12-25T12:40:24.880Z,2.40
2017-12-25T12:42:57.241Z,2.50
2017-12-25T12:45:33.041Z,2.50
2017-12-25T12:48:03.886Z,2.30
2017-12-25T12:50:37.779Z,2.30
2017-12-25T12:53:08.418Z,2.30
2017-12-25T12:55:39.863Z,2.60
2017-12-25T12:58:10.512Z,3.30
2017-12-25T13:00:42.026Z,3.90
2017-12-25T13:03:18.867Z,4.20
2017-12-25T13:05:50.204Z,4.20
2017-12-25T13:08:22.858Z,3.00
2017-12-25T13:10:53.527Z,2.60
2017-12-25T13:13:23.741Z,2.40
2017-12-25T13:15:54.017Z,2.10
2017-12-25T13:18:25.613Z,1.70
2017-12-25T13:20:56.269Z,1.70
2017-12-25T13:23:26.529Z,1.70
2017-12-25T13:25:57.618Z,1.50
2017-12-25T13:28:28.843Z,1.50
2017-12-25T13:31:02.716Z,1.60
2017-12-25T13:33:36.279Z,1.60
2017-12-25T13:36:06.669Z,1.50
2017-12-25T13:38:43.842Z,1.40
2017-12-25T13:41:15.654Z,1.30
2017-12-25T13:43:46.397Z,1.20
2017-12-25T13:46:16.733Z,1.10
2017-12-25T13:48:49.324Z,1.10
2017-12-25T13:51:21.446Z,1.00
2017-12-25T13:53:52.300Z,1.10
2017-12-25T13:56:23.336Z,1.00
2017-12-25T13:58:53.637Z,1.10
2017-12-25T14:01:23.932Z,1.10
2017-12-25T14:03:58.421Z,1.00
2017-12-25T14:06:30.277Z,0.70
2017-12-25T14:09:01.311Z,0.70
2017-12-25T14:11:32.316Z,0.50
2017-12-25T14:14:03.506Z,0.50
2017-12-25T14:16:33.927Z,0.40
2017-12-25T14:19:04.328Z,0.30
2017-12-25T14:21:35.457Z,0.30
2017-12-25T14:24:09.297Z,0.30
2017-12-25T14:26:39.979Z,0.10
2017-12-25T14:29:10.683Z,0.10
2017-12-25T14:31:41.020Z,0.10
2017-12-25T14:34:12.527Z,0.20
2017-12-25T14:36:43.441Z,0.20
2017-12-25T14:39:17.771Z,0.30
2017-12-25T14:41:49.574Z,0.40
2017-12-25T14:44:20.736Z,0.30
2017-12-25T14:46:51.101Z,0.50
2017-12-25T14:49:22.009Z,0.50
2017-12-25T14:51:52.894Z,0.60
2017-12-25T14:54:23.561Z,0.60
2017-12-25T14:56:58.185Z,0.60
2017-12-25T14:59:28.542Z,0.60
2017-12-25T15:01:59.223Z,0.70
2017-12-25T15:04:30.285Z,0.90
2017-12-25T15:07:01.239Z,0.90
2017-12-25T15:09:40.367Z,0.80
2017-12-25T15:12:11.547Z,0.70
2017-12-25T15:14:42.637Z,0.40
2017-12-25T15:17:14.102Z,0.50
2017-12-25T15:19:44.950Z,0.50
2017-12-25T15:22:15.277Z,0.50
2017-12-25T15:25:48.572Z,0.30
2017-12-25T15:28:18.850Z,0.20
2017-12-25T15:30:50.200Z,0.30
2017-12-25T15:33:22.216Z,0.40
2017-12-25T15:35:52.598Z,0.50
2017-12-25T15:38:29.233Z,0.70
2017-12-25T15:44:24.730Z,0.90
2017-12-25T15:46:56.972Z,0.60
2017-12-25T15:49:27.725Z,0.60
2017-12-25T15:51:58.072Z,0.60
2017-12-25T15:54:29.025Z,0.20
2017-12-25T15:57:00.680Z,0.40
2017-12-25T15:59:31.364Z,0.50
2017-12-25T16:02:03.052Z,0.70
2017-12-25T16:04:33.344Z,0.60
2017-12-25T16:07:04.082Z,0.40
2017-12-25T16:09:35.074Z,0.10
2017-12-25T16:12:06.083Z,0.20
2017-12-25T16:14:37.172Z,0.40
2017-12-25T16:17:07.397Z,0.50
2017-12-25T16:19:45.065Z,0.50
2017-12-25T16:22:17.274Z,0.60
2017-12-25T16:24:48.348Z,0.60
2017-12-25T16:27:18.983Z,0.70
2017-12-25T16:29:49.908Z,0.80
2017-12-25T16:32:22.661Z,0.80
2017-12-25T16:34:53.533Z,0.90
2017-12-25T16:37:24.670Z,0.60
2017-12-25T16:39:55.438Z,0.20
2017-12-25T16:42:26.107Z,0.20
2017-12-25T16:45:06.386Z,0.40
2017-12-25T16:47:38.534Z,0.40
2017-12-25T16:50:09.375Z,0.40
2017-12-25T16:52:40.000Z,0.30
2017-12-25T16:55:10.688Z,0.40
2017-12-25T16:57:41.250Z,0.20
2017-12-25T17:00:14.763Z,0.20
2017-12-25T17:02:48.115Z,0.20
2017-12-25T17:05:19.330Z,0.20
2017-12-25T17:07:51.380Z,0.10
2017-12-25T17:10:22.052Z,-0.20
2017-12-25T17:12:53.249Z,-0.40
2017-12-25T17:15:24.057Z,-0.30
2017-12-25T17:17:55.603Z,-0.20
2017-12-25T17:20:26.929Z,-0.20
2017-12-25T17:22:57.792Z,-0.40
2017-12-25T17:25:29.380Z,-0.50
2017-12-25T17:28:00.777Z,-0.40
2017-12-25T17:30:31.427Z,-0.40
2017-12-25T17:33:23.810Z,-0.40
2017-12-25T17:35:57.430Z,-0.60
2017-12-25T17:38:29.872Z,-0.60
2017-12-25T17:41:00.579Z,-0.60
2017-12-25T17:43:31.308Z,-0.50
2017-12-25T17:46:02.137Z,-0.60
2017-12-25T17:48:32.711Z,-0.50
2017-12-25T17:51:03.933Z,-0.50
2017-12-25T17:53:37.062Z,-0.50
2017-12-25T17:56:08.728Z,-0.50
2017-12-25T17:58:40.733Z,-0.40
2017-12-25T18:01:12.096Z,-0.50
2017-12-25T18:03:43.128Z,-0.30
2017-12-25T18:06:13.963Z,-0.30
2017-12-25T18:08:51.484Z,-0.30
2017-12-25T18:11:22.469Z,-0.30
2017-12-25T18:13:52.762Z,-0.30
2017-12-25T18:16:23.769Z,-0.20
2017-12-25T18:18:54.732Z,-0.20
2017-12-25T18:21:25.872Z,-0.20
2017-12-25T18:23:57.440Z,0.00
2017-12-25T18:26:29.039Z,0.00
2017-12-25T18:28:59.823Z,0.30
2017-12-25T18:31:30.540Z,0.70
2017-12-25T18:34:05.357Z,1.10
2017-12-25T18:36:36.650Z,1.50
2017-12-25T18:39:07.863Z,2.30
2017-12-25T18:41:38.710Z,2.30
2017-12-25T18:44:10.049Z,2.70
2017-12-25T18:46:41.566Z,2.60
2017-12-25T18:49:12.789Z,2.50
2017-12-25T18:51:43.236Z,2.70
2017-12-25T18:54:13.818Z,2.70
2017-12-25T18:56:54.904Z,2.90
2017-12-25T18:59:26.773Z,2.90
2017-12-25T19:02:01.553Z,3.00
2017-12-25T19:04:36.568Z,3.20
2017-12-25T19:08:21.222Z,3.20
2017-12-25T19:10:52.558Z,3.30
2017-12-25T19:13:23.667Z,3.30
2017-12-25T19:15:54.557Z,3.60
2017-12-25T19:18:32.108Z,4.00
2017-12-25T19:21:04.302Z,4.00
2017-12-25T19:23:34.790Z,4.00
2017-12-25T19:26:05.246Z,4.00
2017-12-25T19:28:36.018Z,3.90
2017-12-25T19:31:06.487Z,4.00
2017-12-25T19:33:37.520Z,4.00
2017-12-25T19:36:14.109Z,4.00
2017-12-25T19:38:45.644Z,4.10
2017-12-25T19:41:22.638Z,4.20
2017-12-25T19:43:53.276Z,4.20
2017-12-25T19:46:24.714Z,4.30
2017-12-25T19:48:55.724Z,4.40
2017-12-25T19:51:26.518Z,4.40
2017-12-25T19:53:57.651Z,4.40
2017-12-25T19:56:28.647Z,4.40
2017-12-25T19:58:59.899Z,4.40
2017-12-25T20:01:31.435Z,4.20
2017-12-25T20:04:01.935Z,4.20
2017-12-25T20:06:32.609Z,4.20
2017-12-25T20:09:03.684Z,4.10
2017-12-25T20:11:36.312Z,4.10
2017-12-25T20:14:08.035Z,4.10
2017-12-25T20:16:53.959Z,4.00
2017-12-25T20:19:26.900Z,4.00
2017-12-25T20:21:57.488Z,3.90
2017-12-25T20:24:28.839Z,3.90
2017-12-25T20:26:59.953Z,3.90
2017-12-25T20:29:31.049Z,3.90
2017-12-25T20:32:13.856Z,3.60
2017-12-25T20:34:45.863Z,3.40
2017-12-25T20:37:18.255Z,3.30
2017-12-25T20:39:49.411Z,3.30
2017-12-25T20:42:20.207Z,3.20
2017-12-25T20:44:55.099Z,3.10
2017-12-25T20:47:38.899Z,3.00
2017-12-25T20:50:11.731Z,3.00
2017-12-25T20:52:42.074Z,3.10
2017-12-25T20:55:12.467Z,2.80
2017-12-25T20:57:43.412Z,2.50
2017-12-25T21:00:14.026Z,2.60
2017-12-25T21:02:44.762Z,2.70
2017-12-25T21:05:16.251Z,2.80
2017-12-25T21:07:48.108Z,3.10
2017-12-25T21:10:19.674Z,3.10
2017-12-25T21:12:50.003Z,3.40
2017-12-25T21:15:20.802Z,3.50
2017-12-25T21:17:51.773Z,3.60
2017-12-25T21:20:38.358Z,3.60
2017-12-25T21:23:09.374Z,3.60
2017-12-25T21:25:40.860Z,3.60
2017-12-25T21:28:11.119Z,3.60
2017-12-25T21:30:43.770Z,3.80
2017-12-25T21:33:16.753Z,3.80
2017-12-25T21:35:47.668Z,3.90
2017-12-25T21:38:18.764Z,4.00
2017-12-25T21:41:06.061Z,4.00
2017-12-25T21:43:36.752Z,4.00
2017-12-25T21:46:08.152Z,4.20
2017-12-25T21:48:39.385Z,4.20
2017-12-25T21:51:09.994Z,4.20
2017-12-25T21:53:41.066Z,4.30
2017-12-25T21:56:11.656Z,4.30
2017-12-25T21:58:42.289Z,4.30
2017-12-25T22:01:12.728Z,4.30
2017-12-25T22:03:43.332Z,4.30
2017-12-25T22:06:14.050Z,4.30
2017-12-25T22:08:45.447Z,4.30
2017-12-25T22:11:16.660Z,4.20
2017-12-25T22:13:47.754Z,4.20
2017-12-25T22:16:20.882Z,4.20
2017-12-25T22:18:52.991Z,4.20
2017-12-25T22:21:51.139Z,4.30
2017-12-25T22:24:22.674Z,4.20
2017-12-25T22:26:54.687Z,4.30
2017-12-25T22:29:25.892Z,4.20
2017-12-25T22:31:56.828Z,4.20
2017-12-25T22:34:28.694Z,4.10
2017-12-25T22:37:00.098Z,4.10
2017-12-25T22:39:30.819Z,4.10
2017-12-25T22:42:01.688Z,4.20
2017-12-25T22:44:32.532Z,4.10
2017-12-25T22:47:04.919Z,4.10
2017-12-25T22:49:35.834Z,4.00
2017-12-25T22:52:06.472Z,3.90
2017-12-25T22:54:36.974Z,3.80
2017-12-25T22:57:07.549Z,3.60
2017-12-25T22:59:38.447Z,3.30
2017-12-25T23:02:10.021Z,2.80
2017-12-25T23:04:41.072Z,2.20
2017-12-25T23:07:12.191Z,1.90
2017-12-25T23:09:43.640Z,1.60
2017-12-25T23:12:14.316Z,1.60
2017-12-25T23:14:46.252Z,1.10
2017-12-25T23:17:16.908Z,1.00
2017-12-25T23:19:49.557Z,0.60
2017-12-25T23:22:21.279Z,0.50
2017-12-25T23:24:52.200Z,0.40
2017-12-25T23:27:23.410Z,0.30
2017-12-25T23:29:54.620Z,-0.10
2017-12-25T23:32:25.844Z,-0.30
2017-12-25T23:34:56.658Z,-0.30
2017-12-25T23:37:28.100Z,-0.30
2017-12-25T23:39:58.709Z,-0.30
2017-12-25T23:42:32.008Z,-0.30
2017-12-25T23:45:02.729Z,-0.30
2017-12-25T23:47:33.683Z,-0.30
2017-12-25T23:50:04.220Z,-0.40
2017-12-25T23:52:34.887Z,-0.30
2017-12-25T23:55:06.258Z,-0.20
2017-12-25T23:57:37.056Z,-0.20
